Burgtor — V2OR7 — position and weather

sailwx.info

Track history (hours):
 
Tides and Currents Weather Stations Pressure Air Temp Water Temp Dewpoint Dewpoint Depression Visibility Wind Speed Wind Dir Waves Ship Positions

Burgtor

Last reported at 2014-Jul-23 21:18 UTC. Time now 2014-Jul-24 13:03 UTC.
Position N 50°34' E 000°13'.

Length 87 m; draft 4.8 m.

Type: Cargo ship. MMSI: 304665000.

Date/timePositionNaut miles runAvg speedWind from/ knotsBaromVisibWave heightAir tempDewpointWater temp
2014-Jul-23 21:18N 50°34' E 000°13'7 9.3
2014-Jul-23 20:33N 50°37' E 000°23'9 8.9
2014-Jul-23 19:33N 50°40' E 000°36'9 9.1
2014-Jul-23 18:33N 50°45' E 000°48'2610.6
2014-Jul-23 16:08N 51°01' E 001°20'711.7
2014-Jul-23 15:33N 51°05' E 001°29'1111.2
2014-Jul-23 14:33N 51°12' E 001°42'10 9.8
2014-Jul-23 13:33N 51°20' E 001°52'9 8.8
2014-Jul-23 12:33N 51°27' E 001°60'8 8.3
2014-Jul-23 11:33N 51°33' E 002°08'8 8.3
2014-Jul-23 10:32N 51°40' E 002°18'40 9.1
2014-Jul-23 06:08N 52°02' E 003°11'1010.1
2014-Jul-23 05:10N 52°02' E 003°27'610.0
2014-Jul-23 04:33N 52°03' E 003°37'9 8.8
2014-Jul-23 03:33N 52°02' E 003°52'8 8.5
2014-Jul-23 02:33N 51°59' E 004°04'5 5.1
2014-Jul-23 01:32N 51°56' E 004°11'0 0.0
2014-Jul-23 00:32N 51°56' E 004°11'0 0.0
2014-Jul-22 23:29N 51°56' E 004°11'0 0.0
2014-Jul-22 22:32N 51°56' E 004°11'0 0.1
2014-Jul-22 21:26N 51°56' E 004°11'0 0.0
2014-Jul-22 15:05N 51°56' E 004°11'0 0.0
2014-Jul-22 14:20N 51°56' E 004°11'0 0.0
2014-Jul-22 13:29N 51°56' E 004°11'0 0.0
2014-Jul-22 12:23N 51°56' E 004°11'0 0.0
2014-Jul-22 11:32N 51°56' E 004°11'0 0.0
2014-Jul-22 10:29N 51°56' E 004°11'0 0.0
2014-Jul-22 09:29N 51°56' E 004°11'0 0.0
2014-Jul-22 08:32N 51°56' E 004°11'0 0.0
2014-Jul-22 07:20N 51°56' E 004°11'0 0.0
2014-Jul-22 06:20N 51°56' E 004°11'0 0.0
2014-Jul-22 05:32N 51°56' E 004°11'0 0.0
2014-Jul-22 04:26N 51°56' E 004°11'0 0.0
2014-Jul-22 03:28N 51°56' E 004°11'0 0.0
2014-Jul-22 02:25N 51°56' E 004°11'0 0.0
2014-Jul-22 01:19N 51°56' E 004°11'0 0.0
2014-Jul-22 00:31N 51°56' E 004°11'0 0.0
2014-Jul-21 23:31N 51°56' E 004°11'0 0.0
2014-Jul-21 22:31N 51°56' E 004°11'0 0.0
2014-Jul-21 21:13N 51°56' E 004°11'0 0.0
2014-Jul-21 19:31N 51°56' E 004°11'0 0.0
2014-Jul-21 18:16N 51°56' E 004°11'0 0.0
2014-Jul-21 17:04N 51°56' E 004°11'0 0.0
2014-Jul-21 08:28N 51°56' E 004°11'0 0.0
2014-Jul-21 07:10N 51°56' E 004°11'0 0.0
2014-Jul-21 06:10N 51°56' E 004°11'0 0.0
2014-Jul-21 05:31N 51°56' E 004°11'0 0.0
2014-Jul-21 04:07N 51°56' E 004°11'0 0.0
2014-Jul-21 03:22N 51°56' E 004°11'0 0.0
2014-Jul-21 02:22N 51°56' E 004°11'0 0.0
2014-Jul-21 01:04N 51°56' E 004°11'0 0.0
2014-Jul-21 00:22N 51°56' E 004°11'0 0.0
2014-Jul-20 22:16N 51°56' E 004°11'0 0.0
2014-Jul-20 18:31N 51°56' E 004°11'0 0.0
2014-Jul-20 17:24N 51°56' E 004°11'0 0.0
2014-Jul-20 14:18N 51°56' E 004°11'0 0.0
2014-Jul-20 13:15N 51°56' E 004°11'0 0.0
2014-Jul-20 12:03N 51°56' E 004°11'0 0.0
2014-Jul-20 11:03N 51°56' E 004°11'0 0.0
2014-Jul-20 10:27N 51°56' E 004°11'0 0.0
2014-Jul-20 09:06N 51°56' E 004°11'0 0.0
2014-Jul-20 07:18N 51°56' E 004°11'0 0.0
2014-Jul-20 06:33N 51°56' E 004°11'0 0.0
2014-Jul-20 05:30N 51°56' E 004°11'0 0.0
2014-Jul-20 04:24N 51°56' E 004°11'0 0.0
2014-Jul-20 02:27N 51°56' E 004°11'0 0.0
2014-Jul-20 01:30N 51°56' E 004°11'0 0.0
2014-Jul-20 00:27N 51°56' E 004°11'0 0.0
2014-Jul-19 22:30N 51°56' E 004°11'0 0.0
2014-Jul-19 18:24N 51°56' E 004°11'3 3.9
2014-Jul-19 17:32N 51°58' E 004°07'9 9.3
2014-Jul-19 16:32N 51°60' E 003°52'8 8.3
2014-Jul-19 15:33N 52°02' E 003°40'1010.1
2014-Jul-19 14:33N 52°09' E 003°27'1010.1
2014-Jul-19 13:33N 52°14' E 003°13'58 9.6
2014-Jul-19 07:33N 52°45' E 001°53'8 7.9
2014-Jul-19 06:33N 52°50' E 001°43'8 7.9
2014-Jul-19 05:33N 52°54' E 001°32'8 7.9
2014-Jul-19 04:33N 52°58' E 001°20'22 9.3
2014-Jul-19 02:13N 53°10' E 000°50'710.1
2014-Jul-19 01:30N 53°15' E 000°41'30 9.6
2014-Jul-18 22:24N 52°51' E 000°13'3 3.3
2014-Jul-18 21:33N 52°48' E 000°13'  
2014-Jul-16 06:05N 53°01' E 001°10'610.4
2014-Jul-16 05:33N 52°59' E 001°19'1111.3
2014-Jul-16 04:33N 52°54' E 001°35'1212.0
2014-Jul-16 03:33N 52°48' E 001°52'1010.4
2014-Jul-16 02:33N 52°44' E 002°09'9 9.4
2014-Jul-16 01:33N 52°43' E 002°24'10 9.9
2014-Jul-16 00:32N 52°47' E 002°40'55 9.0
2014-Jul-15 18:29N 53°02' E 004°07'7 7.9
2014-Jul-15 17:33N 53°07' E 004°16'29 9.0
2014-Jul-15 14:22N 53°29' E 004°46'810.1
2014-Jul-15 13:33N 53°33' E 004°58'10 9.6
2014-Jul-15 12:33N 53°36' E 005°14'9 9.0
2014-Jul-15 11:34N 53°39' E 005°28'8 8.2
2014-Jul-15 10:34N 53°41' E 005°41'8 7.7
2014-Jul-15 09:34N 53°43' E 005°54'63 9.0
2014-Jul-15 02:33N 54°01' E 007°37'9 8.9
2014-Jul-15 01:34N 54°02' E 007°52'8 8.0
2014-Jul-15 00:34N 54°02' E 008°06'8 8.0
2014-Jul-14 23:34N 54°00' E 008°19'7 7.0
2014-Jul-14 22:33N 53°59' E 008°31'7 7.1
2014-Jul-14 21:34N 53°55' E 008°41'1010.0
2014-Jul-14 20:33N 53°51' E 008°57'1211.8
2014-Jul-14 19:33N 53°52' E 009°16'1312.5
2014-Jul-14 18:31N 53°42' E 009°30'1010.4
2014-Jul-14 17:34N 53°34' E 009°40'9 9.1
2014-Jul-14 16:34N 53°33' E 009°55'2 1.5
2014-Jul-14 15:30N 53°31' E 009°57'0 0.0
2014-Jul-14 14:30N 53°31' E 009°57'0 0.2
2014-Jul-14 13:33N 53°31' E 009°57'1 1.1
2014-Jul-14 12:33N 53°32' E 009°58'0 0.0
2014-Jul-14 11:30N 53°32' E 009°58'0 0.0
2014-Jul-14 10:27N 53°32' E 009°58'0 0.0
2014-Jul-14 09:30N 53°32' E 009°58'1 1.1
2014-Jul-14 08:33N 53°31' E 009°56'0 0.4
2014-Jul-14 07:31N 53°31' E 009°57'0 0.0
2014-Jul-14 06:24N 53°31' E 009°57'0 0.0
2014-Jul-14 05:33N 53°31' E 009°57'0 0.0
2014-Jul-14 04:33N 53°31' E 009°57'0 0.0
2014-Jul-14 03:30N 53°31' E 009°57'1 1.0
2014-Jul-14 02:33N 53°32' E 009°56'1 0.8
2014-Jul-14 01:29N 53°32' E 009°58'0 0.0
2014-Jul-14 00:32N 53°32' E 009°58'0 0.0
2014-Jul-13 23:29N 53°32' E 009°58'0 0.0
2014-Jul-13 22:29N 53°32' E 009°58'0 0.0
2014-Jul-13 21:32N 53°32' E 009°58'  
Track history (hours):
 
Tides and Currents Weather Stations Pressure Air Temp Water Temp Dewpoint Dewpoint Depression Visibility Wind Speed Wind Dir Waves Ship Positions

Burgtor

Last reported at 2014-Jul-23 21:18 UTC. Time now 2014-Jul-24 13:03 UTC.
Position N 50°34' E 000°13'.

Length 87 m; draft 4.8 m.

Type: Cargo ship. MMSI: 304665000.

Date/timePositionNaut miles runAvg speedWind from/ knotsBaromVisibWave heightAir tempDewpointWater temp
2014-Jul-23 21:18N 50°34' E 000°13'7 9.3
2014-Jul-23 20:33N 50°37' E 000°23'9 8.9
2014-Jul-23 19:33N 50°40' E 000°36'9 9.1
2014-Jul-23 18:33N 50°45' E 000°48'2610.6
2014-Jul-23 16:08N 51°01' E 001°20'711.7
2014-Jul-23 15:33N 51°05' E 001°29'1111.2
2014-Jul-23 14:33N 51°12' E 001°42'10 9.8
2014-Jul-23 13:33N 51°20' E 001°52'9 8.8
2014-Jul-23 12:33N 51°27' E 001°60'8 8.3
2014-Jul-23 11:33N 51°33' E 002°08'8 8.3
2014-Jul-23 10:32N 51°40' E 002°18'40 9.1
2014-Jul-23 06:08N 52°02' E 003°11'1010.1
2014-Jul-23 05:10N 52°02' E 003°27'610.0
2014-Jul-23 04:33N 52°03' E 003°37'9 8.8
2014-Jul-23 03:33N 52°02' E 003°52'8 8.5
2014-Jul-23 02:33N 51°59' E 004°04'5 5.1
2014-Jul-23 01:32N 51°56' E 004°11'0 0.0
2014-Jul-23 00:32N 51°56' E 004°11'0 0.0
2014-Jul-22 23:29N 51°56' E 004°11'0 0.0
2014-Jul-22 22:32N 51°56' E 004°11'0 0.1
2014-Jul-22 21:26N 51°56' E 004°11'0 0.0
2014-Jul-22 15:05N 51°56' E 004°11'0 0.0
2014-Jul-22 14:20N 51°56' E 004°11'0 0.0
2014-Jul-22 13:29N 51°56' E 004°11'0 0.0
2014-Jul-22 12:23N 51°56' E 004°11'0 0.0
2014-Jul-22 11:32N 51°56' E 004°11'0 0.0
2014-Jul-22 10:29N 51°56' E 004°11'0 0.0
2014-Jul-22 09:29N 51°56' E 004°11'0 0.0
2014-Jul-22 08:32N 51°56' E 004°11'0 0.0
2014-Jul-22 07:20N 51°56' E 004°11'0 0.0
2014-Jul-22 06:20N 51°56' E 004°11'0 0.0
2014-Jul-22 05:32N 51°56' E 004°11'0 0.0
2014-Jul-22 04:26N 51°56' E 004°11'0 0.0
2014-Jul-22 03:28N 51°56' E 004°11'0 0.0
2014-Jul-22 02:25N 51°56' E 004°11'0 0.0
2014-Jul-22 01:19N 51°56' E 004°11'0 0.0
2014-Jul-22 00:31N 51°56' E 004°11'0 0.0
2014-Jul-21 23:31N 51°56' E 004°11'0 0.0
2014-Jul-21 22:31N 51°56' E 004°11'0 0.0
2014-Jul-21 21:13N 51°56' E 004°11'0 0.0
2014-Jul-21 19:31N 51°56' E 004°11'0 0.0
2014-Jul-21 18:16N 51°56' E 004°11'0 0.0
2014-Jul-21 17:04N 51°56' E 004°11'0 0.0
2014-Jul-21 08:28N 51°56' E 004°11'0 0.0
2014-Jul-21 07:10N 51°56' E 004°11'0 0.0
2014-Jul-21 06:10N 51°56' E 004°11'0 0.0
2014-Jul-21 05:31N 51°56' E 004°11'0 0.0
2014-Jul-21 04:07N 51°56' E 004°11'0 0.0
2014-Jul-21 03:22N 51°56' E 004°11'0 0.0
2014-Jul-21 02:22N 51°56' E 004°11'0 0.0
2014-Jul-21 01:04N 51°56' E 004°11'0 0.0
2014-Jul-21 00:22N 51°56' E 004°11'0 0.0
2014-Jul-20 22:16N 51°56' E 004°11'0 0.0
2014-Jul-20 18:31N 51°56' E 004°11'0 0.0
2014-Jul-20 17:24N 51°56' E 004°11'0 0.0
2014-Jul-20 14:18N 51°56' E 004°11'0 0.0
2014-Jul-20 13:15N 51°56' E 004°11'0 0.0
2014-Jul-20 12:03N 51°56' E 004°11'0 0.0
2014-Jul-20 11:03N 51°56' E 004°11'0 0.0
2014-Jul-20 10:27N 51°56' E 004°11'0 0.0
2014-Jul-20 09:06N 51°56' E 004°11'0 0.0
2014-Jul-20 07:18N 51°56' E 004°11'0 0.0
2014-Jul-20 06:33N 51°56' E 004°11'0 0.0
2014-Jul-20 05:30N 51°56' E 004°11'0 0.0
2014-Jul-20 04:24N 51°56' E 004°11'0 0.0
2014-Jul-20 02:27N 51°56' E 004°11'0 0.0
2014-Jul-20 01:30N 51°56' E 004°11'0 0.0
2014-Jul-20 00:27N 51°56' E 004°11'0 0.0
2014-Jul-19 22:30N 51°56' E 004°11'0 0.0
2014-Jul-19 18:24N 51°56' E 004°11'3 3.9
2014-Jul-19 17:32N 51°58' E 004°07'9 9.3
2014-Jul-19 16:32N 51°60' E 003°52'8 8.3
2014-Jul-19 15:33N 52°02' E 003°40'1010.1
2014-Jul-19 14:33N 52°09' E 003°27'1010.1
2014-Jul-19 13:33N 52°14' E 003°13'58 9.6
2014-Jul-19 07:33N 52°45' E 001°53'8 7.9
2014-Jul-19 06:33N 52°50' E 001°43'8 7.9
2014-Jul-19 05:33N 52°54' E 001°32'8 7.9
2014-Jul-19 04:33N 52°58' E 001°20'22 9.3
2014-Jul-19 02:13N 53°10' E 000°50'710.1
2014-Jul-19 01:30N 53°15' E 000°41'30 9.6
2014-Jul-18 22:24N 52°51' E 000°13'3 3.3
2014-Jul-18 21:33N 52°48' E 000°13'  
2014-Jul-16 06:05N 53°01' E 001°10'610.4
2014-Jul-16 05:33N 52°59' E 001°19'1111.3
2014-Jul-16 04:33N 52°54' E 001°35'1212.0
2014-Jul-16 03:33N 52°48' E 001°52'1010.4
2014-Jul-16 02:33N 52°44' E 002°09'9 9.4
2014-Jul-16 01:33N 52°43' E 002°24'10 9.9
2014-Jul-16 00:32N 52°47' E 002°40'55 9.0
2014-Jul-15 18:29N 53°02' E 004°07'7 7.9
2014-Jul-15 17:33N 53°07' E 004°16'29 9.0
2014-Jul-15 14:22N 53°29' E 004°46'810.1
2014-Jul-15 13:33N 53°33' E 004°58'10 9.6
2014-Jul-15 12:33N 53°36' E 005°14'9 9.0
2014-Jul-15 11:34N 53°39' E 005°28'8 8.2
2014-Jul-15 10:34N 53°41' E 005°41'8 7.7
2014-Jul-15 09:34N 53°43' E 005°54'63 9.0
2014-Jul-15 02:33N 54°01' E 007°37'9 8.9
2014-Jul-15 01:34N 54°02' E 007°52'8 8.0
2014-Jul-15 00:34N 54°02' E 008°06'8 8.0
2014-Jul-14 23:34N 54°00' E 008°19'7 7.0
2014-Jul-14 22:33N 53°59' E 008°31'7 7.1
2014-Jul-14 21:34N 53°55' E 008°41'1010.0
2014-Jul-14 20:33N 53°51' E 008°57'1211.8
2014-Jul-14 19:33N 53°52' E 009°16'1312.5
2014-Jul-14 18:31N 53°42' E 009°30'1010.4
2014-Jul-14 17:34N 53°34' E 009°40'9 9.1
2014-Jul-14 16:34N 53°33' E 009°55'2 1.5
2014-Jul-14 15:30N 53°31' E 009°57'0 0.0
2014-Jul-14 14:30N 53°31' E 009°57'0 0.2
2014-Jul-14 13:33N 53°31' E 009°57'1 1.1
2014-Jul-14 12:33N 53°32' E 009°58'0 0.0
2014-Jul-14 11:30N 53°32' E 009°58'0 0.0
2014-Jul-14 10:27N 53°32' E 009°58'0 0.0
2014-Jul-14 09:30N 53°32' E 009°58'1 1.1
2014-Jul-14 08:33N 53°31' E 009°56'0 0.4
2014-Jul-14 07:31N 53°31' E 009°57'0 0.0
2014-Jul-14 06:24N 53°31' E 009°57'0 0.0
2014-Jul-14 05:33N 53°31' E 009°57'0 0.0
2014-Jul-14 04:33N 53°31' E 009°57'0 0.0
2014-Jul-14 03:30N 53°31' E 009°57'1 1.0
2014-Jul-14 02:33N 53°32' E 009°56'1 0.8
2014-Jul-14 01:29N 53°32' E 009°58'0 0.0
2014-Jul-14 00:32N 53°32' E 009°58'0 0.0
2014-Jul-13 23:29N 53°32' E 009°58'0 0.0
2014-Jul-13 22:29N 53°32' E 009°58'0 0.0
2014-Jul-13 21:32N 53°32' E 009°58'  

Dump ship's entire track history